createdAt,value
2018-04-19T00:00:22.469Z,99.90
2018-04-19T00:02:50.836Z,99.90
2018-04-19T00:05:18.417Z,99.90
2018-04-19T00:07:46.766Z,99.90
2018-04-19T00:10:14.345Z,99.90
2018-04-19T00:12:41.896Z,99.90
2018-04-19T00:15:09.602Z,99.90
2018-04-19T00:17:37.177Z,99.90
2018-04-19T00:20:04.764Z,99.90
2018-04-19T00:22:32.341Z,99.90
2018-04-19T00:24:59.928Z,99.90
2018-04-19T00:27:28.310Z,99.90
2018-04-19T00:29:56.652Z,99.90
2018-04-19T00:32:24.240Z,99.90
2018-04-19T00:34:52.587Z,99.90
2018-04-19T00:37:20.148Z,99.90
2018-04-19T00:39:47.749Z,99.90
2018-04-19T00:42:16.107Z,99.90
2018-04-19T00:44:43.688Z,99.90
2018-04-19T00:47:12.038Z,99.90
2018-04-19T00:49:39.614Z,99.90
2018-04-19T00:52:07.202Z,99.90
2018-04-19T00:54:34.754Z,99.90
2018-04-19T00:57:03.119Z,99.90
2018-04-19T00:59:31.468Z,99.90
2018-04-19T01:01:59.049Z,99.90
2018-04-19T01:04:26.631Z,99.90
2018-04-19T01:06:54.969Z,99.90
2018-04-19T01:09:22.564Z,99.90
2018-04-19T01:11:50.142Z,99.90
2018-04-19T01:14:17.717Z,99.90
2018-04-19T01:16:45.292Z,99.90
2018-04-19T01:19:12.877Z,99.90
2018-04-19T01:21:40.464Z,99.90
2018-04-19T01:24:08.029Z,99.90
2018-04-19T01:26:35.591Z,99.90
2018-04-19T01:29:03.163Z,99.90
2018-04-19T01:31:31.506Z,99.90
2018-04-19T01:33:59.089Z,99.90
2018-04-19T01:36:26.662Z,99.90
2018-04-19T01:38:55.037Z,99.90
2018-04-19T01:41:23.369Z,99.90
2018-04-19T01:43:50.959Z,99.90
2018-04-19T01:46:18.540Z,99.90
2018-04-19T01:48:46.923Z,99.90
2018-04-19T01:51:15.347Z,99.90
2018-04-19T01:53:42.967Z,99.90
2018-04-19T01:56:11.311Z,99.90
2018-04-19T01:58:38.941Z,99.90
2018-04-19T02:01:07.405Z,99.90
2018-04-19T02:03:34.984Z,99.90
2018-04-19T02:06:03.336Z,99.90
2018-04-19T02:08:31.665Z,99.90
2018-04-19T02:10:59.357Z,99.90
2018-04-19T02:13:26.944Z,99.90
2018-04-19T02:15:54.527Z,99.90
2018-04-19T02:18:22.112Z,99.90
2018-04-19T02:20:49.724Z,99.90
2018-04-19T02:23:17.287Z,99.90
2018-04-19T02:25:44.876Z,99.90
2018-04-19T02:28:12.460Z,99.90
2018-04-19T02:30:40.069Z,99.90
2018-04-19T02:33:07.733Z,99.90
2018-04-19T02:35:35.354Z,99.90
2018-04-19T02:38:03.005Z,99.90
2018-04-19T02:40:30.609Z,99.90
2018-04-19T02:42:58.961Z,99.90
2018-04-19T02:45:26.635Z,99.90
2018-04-19T02:47:54.246Z,99.90
2018-04-19T02:50:21.803Z,99.90
2018-04-19T02:52:49.424Z,99.90
2018-04-19T02:55:17.767Z,99.90
2018-04-19T02:57:45.387Z,99.90
2018-04-19T03:00:13.724Z,99.90
2018-04-19T03:02:41.432Z,99.90
2018-04-19T03:05:09.006Z,99.90
2018-04-19T03:07:36.600Z,99.90
2018-04-19T03:10:04.193Z,99.90
2018-04-19T03:12:32.105Z,99.90
2018-04-19T03:14:59.660Z,99.90
2018-04-19T03:17:27.239Z,99.90
2018-04-19T03:19:54.819Z,99.90
2018-04-19T03:22:22.444Z,99.90
2018-04-19T03:24:50.056Z,99.90
2018-04-19T03:27:17.644Z,99.90
2018-04-19T03:29:45.998Z,99.90
2018-04-19T03:32:13.573Z,99.90
2018-04-19T03:34:41.927Z,99.90
2018-04-19T03:37:09.520Z,99.90
2018-04-19T03:39:37.868Z,99.90
2018-04-19T03:42:05.447Z,99.90
2018-04-19T03:44:33.795Z,99.90
2018-04-19T03:47:01.364Z,99.90
2018-04-19T03:49:28.958Z,99.90
2018-04-19T03:51:57.296Z,99.90
2018-04-19T03:54:24.902Z,99.90
2018-04-19T03:56:53.242Z,99.90
2018-04-19T03:59:20.844Z,99.90
2018-04-19T04:01:49.275Z,99.90
2018-04-19T04:04:16.928Z,99.90
2018-04-19T04:06:44.519Z,99.90
2018-04-19T04:09:12.104Z,99.90
2018-04-19T04:11:40.420Z,99.90
2018-04-19T04:14:08.008Z,99.90
2018-04-19T04:16:47.348Z,99.90
2018-04-19T04:19:26.674Z,99.90
2018-04-19T04:22:05.852Z,99.90
2018-04-19T04:24:34.231Z,99.90
2018-04-19T04:27:02.596Z,99.90
2018-04-19T04:29:30.161Z,99.90
2018-04-19T04:31:57.768Z,99.90
2018-04-19T04:34:25.405Z,99.90
2018-04-19T04:36:52.912Z,99.90
2018-04-19T04:39:20.485Z,99.90
2018-04-19T04:41:48.161Z,99.90
2018-04-19T04:44:15.748Z,99.90
2018-04-19T04:46:44.107Z,99.90
2018-04-19T04:49:11.706Z,99.90
2018-04-19T04:51:39.268Z,99.90
2018-04-19T04:54:06.858Z,99.90
2018-04-19T04:56:34.425Z,99.90
2018-04-19T04:59:02.117Z,99.90
2018-04-19T05:01:29.713Z,99.90
2018-04-19T05:03:57.348Z,99.90
2018-04-19T05:06:25.672Z,99.90
2018-04-19T05:08:53.296Z,99.90
2018-04-19T05:11:21.672Z,99.90
2018-04-19T05:13:50.007Z,99.90
2018-04-19T05:16:17.712Z,99.90
2018-04-19T05:18:46.109Z,99.90
2018-04-19T05:21:13.668Z,99.90
2018-04-19T05:23:41.281Z,99.90
2018-04-19T05:26:08.893Z,99.90
2018-04-19T05:28:37.284Z,99.90
2018-04-19T05:31:04.840Z,99.90
2018-04-19T05:33:32.475Z,99.90
2018-04-19T05:36:00.811Z,99.90
2018-04-19T05:38:28.388Z,99.90
2018-04-19T05:40:55.981Z,99.90
2018-04-19T05:43:24.321Z,99.90
2018-04-19T05:45:51.885Z,99.90
2018-04-19T05:48:19.456Z,99.90
2018-04-19T05:50:47.053Z,99.90
2018-04-19T05:53:15.405Z,99.90
2018-04-19T05:55:42.996Z,99.90
2018-04-19T05:58:10.603Z,99.90
2018-04-19T06:00:38.194Z,99.90
2018-04-19T06:03:05.787Z,99.90
2018-04-19T06:05:34.119Z,99.90
2018-04-19T06:08:01.687Z,99.90
2018-04-19T06:10:29.285Z,99.90
2018-04-19T06:12:56.876Z,99.90
2018-04-19T06:15:24.436Z,99.90
2018-04-19T06:17:52.164Z,97.20
2018-04-19T06:20:20.535Z,90.80
2018-04-19T06:22:48.871Z,89.00
2018-04-19T06:25:16.466Z,89.00
2018-04-19T06:27:44.190Z,81.80
2018-04-19T06:30:11.772Z,78.90
2018-04-19T06:32:39.369Z,75.20
2018-04-19T06:35:07.700Z,66.30
2018-04-19T06:37:35.335Z,66.20
2018-04-19T06:40:02.904Z,68.70
2018-04-19T06:42:30.507Z,70.80
2018-04-19T06:44:58.092Z,67.50
2018-04-19T06:47:26.442Z,62.60
2018-04-19T06:49:54.028Z,62.60
2018-04-19T06:52:22.387Z,62.20
2018-04-19T06:54:50.745Z,57.80
2018-04-19T06:57:18.327Z,57.70
2018-04-19T06:59:45.920Z,58.40
2018-04-19T07:02:14.251Z,51.70
2018-04-19T07:04:41.999Z,51.70
2018-04-19T07:07:09.556Z,53.70
2018-04-19T07:09:37.238Z,51.10
2018-04-19T07:12:04.801Z,53.00
2018-04-19T07:14:32.436Z,53.30
2018-04-19T07:17:00.009Z,54.00
2018-04-19T07:19:27.608Z,50.00
2018-04-19T07:21:55.193Z,51.20
2018-04-19T07:24:23.535Z,50.60
2018-04-19T07:26:51.142Z,50.60
2018-04-19T07:29:18.719Z,49.80
2018-04-19T07:31:46.301Z,52.20
2018-04-19T07:34:13.902Z,49.40
2018-04-19T07:36:42.253Z,50.70
2018-04-19T07:39:09.833Z,50.10
2018-04-19T07:41:37.420Z,48.70
2018-04-19T07:44:04.980Z,48.50
2018-04-19T07:46:32.566Z,50.20
2018-04-19T07:49:00.142Z,47.40
2018-04-19T07:51:27.839Z,50.10
2018-04-19T07:53:55.335Z,46.30
2018-04-19T07:56:22.922Z,46.90
2018-04-19T07:58:50.486Z,48.20
2018-04-19T08:01:18.075Z,49.20
2018-04-19T08:03:45.625Z,46.00
2018-04-19T08:06:13.221Z,45.70
2018-04-19T08:08:41.593Z,46.60
2018-04-19T08:11:09.248Z,46.50
2018-04-19T08:13:36.805Z,50.40
2018-04-19T08:16:04.480Z,48.60
2018-04-19T08:18:32.800Z,46.00
2018-04-19T08:21:00.424Z,45.90
2018-04-19T08:23:28.775Z,44.80
2018-04-19T08:25:56.505Z,44.80
2018-04-19T08:28:24.829Z,45.20
2018-04-19T08:30:52.417Z,45.10
2018-04-19T08:33:20.847Z,47.10
2018-04-19T08:35:48.495Z,47.10
2018-04-19T08:38:16.836Z,47.10
2018-04-19T08:40:45.264Z,44.90
2018-04-19T08:43:12.932Z,44.90
2018-04-19T08:45:40.515Z,46.40
2018-04-19T08:48:08.080Z,47.40
2018-04-19T08:50:35.692Z,46.90
2018-04-19T08:53:03.258Z,47.70
2018-04-19T08:55:30.834Z,50.20
2018-04-19T08:57:58.400Z,47.50
2018-04-19T09:00:25.992Z,48.20
2018-04-19T09:02:53.565Z,49.10
2018-04-19T09:05:21.909Z,50.30
2018-04-19T09:07:49.473Z,50.20
2018-04-19T09:10:17.040Z,48.10
2018-04-19T09:12:44.592Z,48.00
2018-04-19T09:15:12.165Z,47.40
2018-04-19T09:17:46.208Z,49.80
2018-04-19T09:20:13.917Z,48.40
2018-04-19T09:22:41.525Z,49.00
2018-04-19T09:25:09.882Z,47.60
2018-04-19T09:27:37.470Z,47.60
2018-04-19T09:30:05.770Z,44.80
2018-04-19T09:32:33.369Z,44.60
2018-04-19T09:35:01.005Z,38.70
2018-04-19T09:37:29.364Z,36.20
2018-04-19T09:39:56.940Z,36.60
2018-04-19T09:42:24.517Z,35.20
2018-04-19T09:44:52.092Z,35.70
2018-04-19T09:47:19.717Z,36.30
2018-04-19T09:49:47.274Z,36.80
2018-04-19T09:52:14.836Z,37.00
2018-04-19T09:54:42.392Z,35.90
2018-04-19T09:57:10.000Z,35.30
2018-04-19T09:59:37.576Z,35.00
2018-04-19T10:02:05.155Z,35.20
2018-04-19T10:04:33.476Z,33.50
2018-04-19T10:07:01.060Z,33.40
2018-04-19T10:09:28.636Z,35.00
2018-04-19T10:11:56.376Z,32.40
2018-04-19T10:14:23.972Z,33.60
2018-04-19T10:16:52.346Z,33.90
2018-04-19T10:19:19.954Z,33.60
2018-04-19T10:21:47.515Z,33.30
2018-04-19T10:24:15.101Z,32.60
2018-04-19T10:26:42.678Z,32.20
2018-04-19T10:29:10.276Z,33.10
2018-04-19T10:31:38.620Z,32.10
2018-04-19T10:34:06.189Z,32.10
2018-04-19T10:36:33.779Z,33.00
2018-04-19T10:39:02.131Z,30.60
2018-04-19T10:41:29.697Z,30.60
2018-04-19T10:43:57.277Z,31.20
2018-04-19T10:46:25.644Z,30.50
2018-04-19T10:48:53.226Z,30.40
2018-04-19T10:51:21.608Z,30.30
2018-04-19T10:53:49.958Z,30.30
2018-04-19T10:56:17.592Z,30.20
2018-04-19T10:58:46.246Z,29.20
2018-04-19T11:01:13.815Z,28.60
2018-04-19T11:03:41.414Z,28.70
2018-04-19T11:06:08.967Z,28.90
2018-04-19T11:08:36.568Z,30.00
2018-04-19T11:11:04.882Z,31.70
2018-04-19T11:13:33.232Z,30.20
2018-04-19T11:16:00.831Z,30.10
2018-04-19T11:18:29.148Z,29.90
2018-04-19T11:20:56.730Z,29.30
2018-04-19T11:23:25.604Z,30.10
2018-04-19T11:25:53.206Z,30.00
2018-04-19T11:28:20.816Z,30.80
2018-04-19T11:30:48.453Z,30.20
2018-04-19T11:33:16.016Z,32.40
2018-04-19T11:35:43.623Z,32.50
2018-04-19T11:38:11.952Z,31.60
2018-04-19T11:40:39.525Z,31.60
2018-04-19T11:43:07.124Z,30.80
2018-04-19T11:45:35.447Z,41.50
2018-04-19T11:48:03.071Z,41.50
2018-04-19T11:50:30.632Z,42.10
2018-04-19T11:52:58.210Z,42.30
2018-04-19T11:55:25.810Z,42.20
2018-04-19T11:57:53.467Z,43.10
2018-04-19T12:00:21.067Z,44.40
2018-04-19T12:02:49.401Z,44.00
2018-04-19T12:05:16.997Z,43.90
2018-04-19T12:07:44.555Z,41.40
2018-04-19T12:10:12.132Z,45.30
2018-04-19T12:12:40.488Z,46.00
2018-04-19T12:15:08.126Z,46.00
2018-04-19T12:17:35.736Z,47.10
2018-04-19T12:20:04.088Z,46.10
2018-04-19T12:22:31.660Z,46.00
2018-04-19T12:24:59.295Z,44.00
2018-04-19T12:27:26.891Z,43.00
2018-04-19T12:29:55.250Z,45.00
2018-04-19T12:32:22.867Z,44.90
2018-04-19T12:34:50.457Z,44.10
2018-04-19T12:37:18.030Z,42.00
2018-04-19T12:39:45.599Z,43.90
2018-04-19T12:42:13.171Z,44.20
2018-04-19T12:44:40.769Z,44.90
2018-04-19T12:47:08.368Z,46.70
2018-04-19T12:49:36.011Z,45.00
2018-04-19T12:52:03.565Z,47.00
2018-04-19T12:54:31.155Z,42.90
2018-04-19T12:56:58.786Z,44.30
2018-04-19T12:59:26.439Z,43.90
2018-04-19T13:01:54.039Z,43.70
2018-04-19T13:04:21.628Z,44.50
2018-04-19T13:06:49.219Z,46.30
2018-04-19T13:09:17.565Z,46.00
2018-04-19T13:11:45.151Z,46.00
2018-04-19T13:14:12.734Z,44.10
2018-04-19T13:16:40.295Z,45.50
2018-04-19T13:19:07.905Z,44.80
2018-04-19T13:21:35.464Z,45.00
2018-04-19T13:24:03.035Z,46.40
2018-04-19T13:26:30.641Z,46.10
2018-04-19T13:29:00.059Z,45.80
2018-04-19T13:31:27.674Z,40.40
2018-04-19T13:33:57.282Z,44.00
2018-04-19T13:36:25.728Z,43.40
2018-04-19T13:38:53.308Z,43.40
2018-04-19T13:41:21.033Z,43.90
2018-04-19T13:43:48.605Z,43.20
2018-04-19T13:46:16.219Z,43.50
2018-04-19T13:48:44.659Z,43.00
2018-04-19T13:51:12.209Z,43.00
2018-04-19T13:53:40.534Z,43.00
2018-04-19T13:56:08.914Z,43.70
2018-04-19T13:58:37.562Z,44.30
2018-04-19T14:01:05.200Z,44.10
2018-04-19T14:03:32.757Z,42.90
2018-04-19T14:06:00.332Z,44.40
2018-04-19T14:08:27.944Z,44.10
2018-04-19T14:10:56.279Z,42.60
2018-04-19T14:13:23.901Z,42.50
2018-04-19T14:15:51.477Z,46.10
2018-04-19T14:18:19.022Z,43.30
2018-04-19T14:20:46.601Z,42.00
2018-04-19T14:23:14.188Z,43.20
2018-04-19T14:25:41.818Z,42.70
2018-04-19T14:28:09.409Z,42.40
2018-04-19T14:30:36.960Z,42.50
2018-04-19T14:33:04.539Z,40.70
2018-04-19T14:35:32.117Z,42.90
2018-04-19T14:37:59.696Z,41.70
2018-04-19T14:40:28.025Z,42.20
2018-04-19T14:42:55.623Z,42.10
2018-04-19T14:45:23.181Z,41.50
2018-04-19T14:47:50.787Z,43.20
2018-04-19T14:50:18.346Z,42.90
2018-04-19T14:52:45.932Z,42.20
2018-04-19T14:55:13.536Z,39.80
2018-04-19T14:57:41.074Z,40.70
2018-04-19T15:00:08.650Z,40.50
2018-04-19T15:02:36.231Z,42.30
2018-04-19T15:05:04.712Z,41.90
2018-04-19T15:07:33.033Z,41.60
2018-04-19T15:10:00.641Z,41.60
2018-04-19T15:12:28.229Z,41.60
2018-04-19T15:14:55.835Z,40.20
2018-04-19T15:17:24.005Z,39.80
2018-04-19T15:19:51.591Z,42.00
2018-04-19T15:22:19.144Z,44.80
2018-04-19T15:24:46.884Z,42.90
2018-04-19T15:27:14.488Z,43.10
2018-04-19T15:29:42.846Z,42.60
2018-04-19T15:32:10.448Z,42.60
2018-04-19T15:34:38.033Z,42.60
2018-04-19T15:37:05.600Z,42.50
2018-04-19T15:39:33.163Z,44.70
2018-04-19T15:42:00.744Z,44.80
2018-04-19T15:44:28.342Z,43.50
2018-04-19T15:46:56.669Z,43.70
2018-04-19T15:49:24.359Z,43.70
2018-04-19T15:51:51.996Z,43.20
2018-04-19T15:54:20.340Z,44.20
2018-04-19T15:56:48.693Z,43.20
2018-04-19T15:59:17.061Z,43.00
2018-04-19T16:01:44.696Z,42.90
2018-04-19T16:04:12.281Z,44.00
2018-04-19T16:06:40.799Z,44.10
2018-04-19T16:09:08.452Z,43.70
2018-04-19T16:11:36.824Z,44.10
2018-04-19T16:14:05.278Z,43.50
2018-04-19T16:16:32.877Z,45.70
2018-04-19T16:19:01.218Z,45.90
2018-04-19T16:21:29.053Z,45.90
2018-04-19T16:23:56.675Z,45.10
2018-04-19T16:26:24.219Z,45.70
2018-04-19T16:28:51.783Z,46.70
2018-04-19T16:31:19.412Z,46.00
2018-04-19T16:33:47.062Z,46.80
2018-04-19T16:36:14.720Z,47.00
2018-04-19T16:38:42.320Z,45.90
2018-04-19T16:41:09.929Z,45.70
2018-04-19T16:43:37.468Z,47.00
2018-04-19T16:46:05.851Z,47.10
2018-04-19T16:48:34.212Z,48.00
2018-04-19T16:51:01.792Z,47.90
2018-04-19T16:53:30.173Z,48.30
2018-04-19T16:55:58.497Z,48.90
2018-04-19T16:58:26.098Z,48.30
2018-04-19T17:00:53.698Z,48.30
2018-04-19T17:03:21.307Z,48.50
2018-04-19T17:05:48.951Z,49.40
2018-04-19T17:08:16.568Z,48.90
2018-04-19T17:10:44.137Z,48.50
2018-04-19T17:13:11.712Z,48.50
2018-04-19T17:15:39.280Z,48.70
2018-04-19T17:18:06.886Z,49.20
2018-04-19T17:20:34.486Z,49.70
2018-04-19T17:23:02.085Z,49.60
2018-04-19T17:25:29.742Z,49.90
2018-04-19T17:27:57.453Z,49.70
2018-04-19T17:30:25.839Z,49.80
2018-04-19T17:32:54.323Z,51.10
2018-04-19T17:35:22.700Z,51.00
2018-04-19T17:37:51.036Z,51.10
2018-04-19T17:40:18.652Z,51.00
2018-04-19T17:42:47.582Z,52.40
2018-04-19T17:45:15.189Z,52.30
2018-04-19T17:47:43.551Z,52.30
2018-04-19T17:50:11.273Z,52.30
2018-04-19T17:52:39.324Z,53.20
2018-04-19T17:55:07.104Z,53.20
2018-04-19T17:57:34.884Z,53.30
2018-04-19T18:00:04.225Z,54.30
2018-04-19T18:02:31.846Z,53.60
2018-04-19T18:04:59.476Z,54.80
2018-04-19T18:07:27.870Z,55.50
2018-04-19T18:09:55.450Z,55.40
2018-04-19T18:12:23.117Z,55.00
2018-04-19T18:14:50.717Z,55.50
2018-04-19T18:17:18.316Z,55.80
2018-04-19T18:19:45.999Z,56.20
2018-04-19T18:22:14.371Z,56.90
2018-04-19T18:24:41.965Z,56.90
2018-04-19T18:27:09.563Z,57.40
2018-04-19T18:29:39.044Z,58.40
2018-04-19T18:32:06.623Z,58.40
2018-04-19T18:34:34.970Z,59.40
2018-04-19T18:37:03.346Z,59.40
2018-04-19T18:39:30.905Z,60.40
2018-04-19T18:41:58.525Z,62.50
2018-04-19T18:44:26.140Z,62.40
2018-04-19T18:46:53.746Z,63.70
2018-04-19T18:49:21.436Z,64.20
2018-04-19T18:51:50.219Z,68.40
2018-04-19T18:54:17.832Z,68.40
2018-04-19T18:56:45.469Z,71.90
2018-04-19T18:59:13.102Z,77.30
2018-04-19T19:01:40.684Z,85.30
2018-04-19T19:04:08.358Z,91.70
2018-04-19T19:06:36.058Z,96.90
2018-04-19T19:09:04.528Z,99.90
2018-04-19T19:11:32.174Z,99.90
2018-04-19T19:13:59.783Z,99.90
2018-04-19T19:16:27.385Z,99.90
2018-04-19T19:19:06.711Z,99.90
2018-04-19T19:21:34.302Z,99.90
2018-04-19T19:24:01.982Z,99.90
2018-04-19T19:26:29.586Z,99.90
2018-04-19T19:28:57.233Z,99.90
2018-04-19T19:31:25.364Z,99.90
2018-04-19T19:33:52.948Z,99.90
2018-04-19T19:36:21.385Z,99.90
2018-04-19T19:38:49.007Z,99.90
2018-04-19T19:41:17.432Z,99.90
2018-04-19T19:43:45.885Z,99.90
2018-04-19T19:46:13.679Z,99.90
2018-04-19T19:48:41.285Z,99.90
2018-04-19T19:51:09.672Z,99.90
2018-04-19T19:53:37.383Z,99.90
2018-04-19T19:56:05.023Z,99.90
2018-04-19T19:58:32.817Z,99.90
2018-04-19T20:01:00.465Z,99.90
2018-04-19T20:03:28.180Z,99.90
2018-04-19T20:05:55.803Z,99.90
2018-04-19T20:08:24.276Z,99.90
2018-04-19T20:10:51.962Z,99.90
2018-04-19T20:13:19.574Z,99.90
2018-04-19T20:15:47.419Z,99.90
2018-04-19T20:18:15.052Z,99.90
2018-04-19T20:20:42.644Z,99.90
2018-04-19T20:23:10.276Z,99.90
2018-04-19T20:25:37.852Z,99.90
2018-04-19T20:28:05.879Z,99.90
2018-04-19T20:30:33.474Z,99.90
2018-04-19T20:33:01.089Z,99.90
2018-04-19T20:35:28.675Z,99.90
2018-04-19T20:37:56.880Z,99.90
2018-04-19T20:40:24.470Z,99.90
2018-04-19T20:42:52.932Z,99.90
2018-04-19T20:45:20.577Z,99.90
2018-04-19T20:47:48.160Z,99.90
2018-04-19T20:50:15.744Z,99.90
2018-04-19T20:52:43.357Z,99.90
2018-04-19T20:55:11.816Z,99.90
2018-04-19T20:57:39.577Z,99.90
2018-04-19T21:00:07.164Z,99.90
2018-04-19T21:02:34.728Z,99.90
2018-04-19T21:05:04.182Z,99.90
2018-04-19T21:07:31.956Z,99.90
2018-04-19T21:09:59.673Z,99.90
2018-04-19T21:12:27.572Z,99.90
2018-04-19T21:14:55.898Z,99.90
2018-04-19T21:17:23.484Z,99.90
2018-04-19T21:19:51.136Z,99.90
2018-04-19T21:22:18.715Z,99.90
2018-04-19T21:24:46.335Z,99.90
2018-04-19T21:27:13.903Z,99.90
2018-04-19T21:29:41.488Z,99.90
2018-04-19T21:32:09.081Z,99.90
2018-04-19T21:34:37.442Z,99.90
2018-04-19T21:37:05.018Z,99.90
2018-04-19T21:39:32.622Z,99.90
2018-04-19T21:42:00.227Z,99.90
2018-04-19T21:44:27.785Z,99.90
2018-04-19T21:46:55.397Z,99.90
2018-04-19T21:49:22.968Z,99.90
2018-04-19T21:51:50.567Z,99.90
2018-04-19T21:54:18.123Z,99.90
2018-04-19T21:56:45.766Z,99.90
2018-04-19T21:59:13.412Z,99.90
2018-04-19T22:01:41.009Z,99.90
2018-04-19T22:04:08.612Z,99.90
2018-04-19T22:06:36.223Z,99.90
2018-04-19T22:09:03.770Z,99.90
2018-04-19T22:11:31.352Z,99.90
2018-04-19T22:13:58.941Z,99.90
2018-04-19T22:16:27.276Z,99.90
2018-04-19T22:18:54.870Z,99.90
2018-04-19T22:21:23.219Z,99.90
2018-04-19T22:23:50.876Z,99.90
2018-04-19T22:26:18.438Z,99.90
2018-04-19T22:28:46.032Z,99.90
2018-04-19T22:31:14.383Z,99.90
2018-04-19T22:33:41.992Z,99.90
2018-04-19T22:36:09.573Z,99.90
2018-04-19T22:38:37.165Z,99.90
2018-04-19T22:41:04.838Z,99.90
2018-04-19T22:43:32.393Z,99.90
2018-04-19T22:45:59.979Z,99.90
2018-04-19T22:48:27.586Z,99.90
2018-04-19T22:50:55.957Z,99.90
2018-04-19T22:53:23.603Z,99.90
2018-04-19T22:55:51.231Z,99.90
2018-04-19T22:58:18.842Z,99.90
2018-04-19T23:00:46.454Z,99.90
2018-04-19T23:03:14.040Z,99.90
2018-04-19T23:05:42.393Z,99.90
2018-04-19T23:08:10.007Z,99.90
2018-04-19T23:10:37.598Z,99.90
2018-04-19T23:13:05.221Z,99.90
2018-04-19T23:15:32.829Z,99.90
2018-04-19T23:18:00.433Z,99.90
2018-04-19T23:20:28.819Z,99.90
2018-04-19T23:22:57.185Z,99.90
2018-04-19T23:25:25.538Z,99.90
2018-04-19T23:27:53.206Z,99.90
2018-04-19T23:30:20.770Z,99.90
2018-04-19T23:32:48.362Z,99.90
2018-04-19T23:35:15.957Z,99.90
2018-04-19T23:37:43.569Z,99.90
2018-04-19T23:40:11.916Z,99.90
2018-04-19T23:42:39.523Z,99.90
2018-04-19T23:45:07.874Z,99.90
2018-04-19T23:47:35.551Z,99.90
2018-04-19T23:50:03.953Z,99.90
2018-04-19T23:52:31.633Z,99.90
2018-04-19T23:54:59.336Z,99.90
2018-04-19T23:57:26.938Z,99.90
2018-04-19T23:59:54.518Z,99.90
